createdAt,value
2022-10-25T00:02:18.144Z,6.68
2022-10-25T00:04:49.050Z,8.73
2022-10-25T00:07:17.295Z,12.40
2022-10-25T00:09:46.592Z,9.75
2022-10-25T00:12:14.943Z,8.13
2022-10-25T00:14:43.797Z,14.75
2022-10-25T00:17:14.746Z,9.07
2022-10-25T00:19:42.984Z,10.25
2022-10-25T00:22:11.549Z,10.02
2022-10-25T00:24:47.188Z,10.65
2022-10-25T00:27:21.363Z,10.55
2022-10-25T00:29:51.679Z,8.85
2022-10-25T00:32:20.165Z,12.25
2022-10-25T00:34:48.580Z,10.65
2022-10-25T00:37:16.768Z,10.50
2022-10-25T00:39:44.957Z,8.32
2022-10-25T00:42:21.205Z,14.18
2022-10-25T00:44:52.860Z,14.07
2022-10-25T00:47:30.243Z,10.57
2022-10-25T00:50:00.453Z,16.90
2022-10-25T00:52:30.691Z,12.43
2022-10-25T00:54:59.683Z,9.30
2022-10-25T00:57:32.834Z,10.15
2022-10-25T01:00:01.178Z,15.73
2022-10-25T01:02:30.035Z,9.35
2022-10-25T01:04:59.717Z,15.70
2022-10-25T01:07:28.100Z,13.65
2022-10-25T01:09:56.090Z,7.53
2022-10-25T01:12:25.669Z,10.77
2022-10-25T01:14:58.111Z,11.70
2022-10-25T01:20:15.478Z,13.98
2022-10-25T01:22:50.534Z,15.40
2022-10-25T01:25:42.563Z,12.48
2022-10-25T01:28:14.558Z,10.43
2022-10-25T01:31:18.803Z,10.07
2022-10-25T01:33:53.319Z,13.02
2022-10-25T01:36:25.063Z,8.43
2022-10-25T01:39:01.938Z,11.30
2022-10-25T01:41:36.439Z,9.30
2022-10-25T01:44:15.984Z,11.95
2022-10-25T01:46:48.129Z,11.35
2022-10-25T01:49:24.256Z,7.20
2022-10-25T01:51:52.251Z,10.10
2022-10-25T01:54:22.383Z,10.35
2022-10-25T01:57:23.335Z,13.32
2022-10-25T02:00:04.311Z,15.93
2022-10-25T02:02:40.598Z,11.82
2022-10-25T02:05:14.532Z,11.35
2022-10-25T02:07:43.897Z,10.10
2022-10-25T02:10:17.219Z,12.23
2022-10-25T02:12:53.905Z,8.10
2022-10-25T02:15:24.831Z,9.85
2022-10-25T02:17:59.666Z,13.52
2022-10-25T02:20:29.963Z,9.73
2022-10-25T02:22:59.288Z,9.05
2022-10-25T02:25:28.071Z,9.93
2022-10-25T02:27:56.823Z,12.38
2022-10-25T02:30:27.294Z,11.27
2022-10-25T02:32:59.193Z,8.98
2022-10-25T02:35:27.921Z,9.02
2022-10-25T02:37:56.806Z,8.43
2022-10-25T02:40:27.441Z,10.77
2022-10-25T02:42:55.661Z,8.27
2022-10-25T02:45:24.115Z,10.35
2022-10-25T02:47:54.367Z,8.77
2022-10-25T02:50:24.215Z,15.57
2022-10-25T02:52:53.454Z,9.18
2022-10-25T02:55:21.566Z,10.15
2022-10-25T02:57:52.485Z,8.00
2022-10-25T03:00:20.768Z,11.63
2022-10-25T03:02:53.505Z,7.30
2022-10-25T03:05:23.403Z,5.55
2022-10-25T03:07:51.409Z,8.00
2022-10-25T03:10:23.278Z,6.53
2022-10-25T03:12:52.854Z,9.80
2022-10-25T03:15:23.919Z,3.20
2022-10-25T03:17:52.953Z,8.50
2022-10-25T03:20:21.089Z,6.05
2022-10-25T03:22:52.229Z,9.30
2022-10-25T03:25:20.574Z,5.30
2022-10-25T03:27:49.501Z,6.13
2022-10-25T03:30:18.087Z,8.95
2022-10-25T03:32:46.453Z,10.25
2022-10-25T03:35:16.889Z,4.35
2022-10-25T03:37:47.676Z,7.07
2022-10-25T03:40:18.536Z,4.47
2022-10-25T03:42:49.088Z,8.60
2022-10-25T03:45:17.780Z,3.55
2022-10-25T03:47:46.743Z,7.43
2022-10-25T03:50:15.812Z,6.57
2022-10-25T03:52:44.048Z,5.20
2022-10-25T03:55:13.396Z,7.03
2022-10-25T03:57:46.146Z,6.93
2022-10-25T04:00:19.117Z,8.00
2022-10-25T04:02:47.392Z,5.95
2022-10-25T04:05:17.522Z,7.35
2022-10-25T04:07:46.076Z,4.97
2022-10-25T04:10:14.495Z,6.95
2022-10-25T04:12:43.850Z,3.15
2022-10-25T04:15:12.158Z,9.45
2022-10-25T04:17:42.078Z,11.27
2022-10-25T04:20:11.761Z,6.22
2022-10-25T04:22:40.431Z,5.28
2022-10-25T04:25:13.230Z,5.82
2022-10-25T04:27:42.214Z,4.18
2022-10-25T04:30:14.982Z,6.10
2022-10-25T04:32:44.309Z,11.45
2022-10-25T04:35:14.447Z,5.50
2022-10-25T04:37:42.395Z,4.90
2022-10-25T04:40:14.380Z,3.55
2022-10-25T04:42:45.321Z,4.07
2022-10-25T04:45:14.763Z,5.47
2022-10-25T04:47:42.810Z,10.20
2022-10-25T04:50:11.492Z,8.27
2022-10-25T04:52:40.770Z,6.28
2022-10-25T04:55:11.264Z,7.70
2022-10-25T04:57:41.283Z,8.63
2022-10-25T05:00:11.154Z,19.10
2022-10-25T05:02:41.071Z,10.45
2022-10-25T05:05:11.494Z,18.83
2022-10-25T05:07:40.013Z,14.20
2022-10-25T05:10:08.649Z,12.07
2022-10-25T05:12:38.245Z,8.70
2022-10-25T05:15:07.431Z,10.73
2022-10-25T05:17:36.047Z,14.43
2022-10-25T05:20:06.981Z,8.73
2022-10-25T05:22:41.563Z,8.98
2022-10-25T05:25:11.423Z,12.70
2022-10-25T05:27:42.058Z,7.47
2022-10-25T05:30:11.882Z,7.18
2022-10-25T05:32:39.938Z,10.77
2022-10-25T05:35:10.167Z,7.68
2022-10-25T05:37:38.233Z,5.72
2022-10-25T05:40:10.369Z,5.70
2022-10-25T05:45:07.439Z,7.40
2022-10-25T05:47:35.519Z,6.00
2022-10-25T05:50:05.221Z,5.43
2022-10-25T05:52:35.194Z,4.72
2022-10-25T05:55:04.643Z,6.93
2022-10-25T05:57:32.775Z,5.38
2022-10-25T06:00:02.123Z,8.80
2022-10-25T06:02:31.545Z,14.80
2022-10-25T06:05:00.307Z,9.35
2022-10-25T06:07:30.338Z,8.80
2022-10-25T06:10:01.194Z,6.85
2022-10-25T06:12:29.222Z,2.85
2022-10-25T06:15:01.303Z,7.07
2022-10-25T06:17:29.615Z,7.95
2022-10-25T06:19:58.042Z,5.82
2022-10-25T06:22:26.086Z,4.63
2022-10-25T06:24:54.953Z,8.88
2022-10-25T06:27:25.482Z,9.57
2022-10-25T06:29:54.047Z,4.85
2022-10-25T06:32:22.389Z,5.10
2022-10-25T06:34:53.352Z,4.82
2022-10-25T06:37:22.114Z,9.40
2022-10-25T06:39:52.460Z,6.70
2022-10-25T06:42:22.793Z,5.95
2022-10-25T06:44:57.050Z,5.05
2022-10-25T06:47:25.877Z,5.18
2022-10-25T06:49:54.211Z,5.80
2022-10-25T06:52:22.338Z,4.47
2022-10-25T06:54:50.655Z,6.18
2022-10-25T06:57:19.206Z,8.30
2022-10-25T06:59:50.503Z,7.95
2022-10-25T07:02:23.085Z,9.60
2022-10-25T07:04:55.867Z,8.77
2022-10-25T07:07:24.372Z,8.77
2022-10-25T07:09:52.616Z,10.75
2022-10-25T07:12:20.698Z,10.68
2022-10-25T07:14:51.774Z,8.55
2022-10-25T07:17:24.298Z,10.60
2022-10-25T07:19:54.422Z,11.10
2022-10-25T07:22:25.317Z,5.30
2022-10-25T07:24:56.815Z,11.50
2022-10-25T07:27:25.573Z,10.63
2022-10-25T07:29:54.117Z,4.90
2022-10-25T07:32:23.670Z,10.75
2022-10-25T07:34:51.819Z,4.88
2022-10-25T07:37:22.379Z,8.60
2022-10-25T07:39:51.284Z,9.23
2022-10-25T07:42:20.357Z,9.80
2022-10-25T07:44:48.676Z,9.15
2022-10-25T07:47:19.458Z,4.95
2022-10-25T07:49:49.064Z,7.78
2022-10-25T07:52:21.744Z,5.82
2022-10-25T07:57:19.836Z,4.10
2022-10-25T07:59:48.614Z,9.43
2022-10-25T08:02:17.323Z,13.00
2022-10-25T08:04:45.401Z,7.20
2022-10-25T08:07:15.254Z,9.95
2022-10-25T08:09:43.685Z,13.43
2022-10-25T08:12:12.236Z,8.70
2022-10-25T08:14:42.292Z,8.38
2022-10-25T08:17:15.761Z,11.65
2022-10-25T08:19:47.487Z,6.25
2022-10-25T08:22:25.075Z,6.80
2022-10-25T08:24:53.143Z,11.80
2022-10-25T08:27:23.919Z,10.63
2022-10-25T08:29:55.987Z,11.30
2022-10-25T08:32:24.303Z,6.65
2022-10-25T08:34:54.042Z,8.68
2022-10-25T08:37:23.939Z,11.90
2022-10-25T08:39:53.607Z,7.88
2022-10-25T08:42:28.266Z,13.38
2022-10-25T08:45:00.091Z,10.10
2022-10-25T08:47:37.568Z,7.75
2022-10-25T08:50:08.491Z,11.60
2022-10-25T08:52:49.302Z,10.82
2022-10-25T08:55:19.136Z,8.55
2022-10-25T08:57:51.270Z,9.00
2022-10-25T09:00:22.538Z,6.43
2022-10-25T09:02:56.165Z,11.75
2022-10-25T09:05:36.742Z,11.57
2022-10-25T09:08:21.146Z,12.38
2022-10-25T09:10:52.990Z,9.13
2022-10-25T09:13:31.246Z,7.93
2022-10-25T09:16:06.712Z,7.80
2022-10-25T09:18:43.588Z,9.73
2022-10-25T09:21:22.165Z,10.48
2022-10-25T09:24:04.121Z,7.13
2022-10-25T09:26:43.862Z,10.45
2022-10-25T09:29:22.302Z,8.15
2022-10-25T09:31:53.463Z,8.98
2022-10-25T09:34:25.834Z,11.85
2022-10-25T09:36:58.423Z,6.82
2022-10-25T09:39:36.801Z,7.13
2022-10-25T09:42:09.406Z,7.63
2022-10-25T09:44:40.499Z,7.60
2022-10-25T09:47:14.998Z,9.77
2022-10-25T09:49:51.487Z,5.78
2022-10-25T09:52:25.889Z,7.65
2022-10-25T09:55:05.865Z,11.02
2022-10-25T09:57:34.940Z,10.52
2022-10-25T10:00:07.177Z,8.98
2022-10-25T10:02:36.698Z,7.78
2022-10-25T10:05:05.172Z,10.75
2022-10-25T10:07:37.306Z,5.75
2022-10-25T10:10:11.269Z,9.57
2022-10-25T10:12:45.387Z,5.93
2022-10-25T10:15:19.884Z,11.95
2022-10-25T10:17:48.621Z,7.05
2022-10-25T10:20:21.124Z,5.90
2022-10-25T10:22:51.853Z,7.85
2022-10-25T10:25:26.181Z,9.70
2022-10-25T10:27:55.615Z,10.55
2022-10-25T10:30:28.956Z,12.55
2022-10-25T10:32:59.408Z,9.93
2022-10-25T10:35:33.469Z,10.63
2022-10-25T10:38:16.892Z,6.55
2022-10-25T10:40:49.306Z,8.48
2022-10-25T10:43:31.340Z,9.88
2022-10-25T10:46:04.444Z,7.57
2022-10-25T10:48:41.807Z,7.13
2022-10-25T10:51:31.862Z,8.23
2022-10-25T10:54:15.958Z,10.80
2022-10-25T10:56:54.477Z,10.75
2022-10-25T10:59:34.007Z,6.65
2022-10-25T11:02:20.523Z,8.63
2022-10-25T11:04:50.038Z,6.90
2022-10-25T11:07:29.583Z,7.15
2022-10-25T11:10:27.155Z,8.43
2022-10-25T11:13:11.175Z,6.10
2022-10-25T11:16:07.304Z,8.93
2022-10-25T11:18:43.478Z,8.88
2022-10-25T11:21:20.354Z,7.53
2022-10-25T11:24:02.155Z,9.98
2022-10-25T11:26:34.109Z,7.95
2022-10-25T11:29:09.260Z,10.40
2022-10-25T11:31:50.326Z,11.93
2022-10-25T11:34:27.110Z,9.93
2022-10-25T11:37:06.689Z,5.43
2022-10-25T11:39:45.981Z,3.83
2022-10-25T11:42:29.958Z,5.03
2022-10-25T11:45:29.525Z,7.37
2022-10-25T11:48:10.201Z,7.03
2022-10-25T11:50:44.435Z,8.95
2022-10-25T11:53:21.563Z,7.32
2022-10-25T11:55:51.761Z,9.10
2022-10-25T11:58:31.688Z,9.07
2022-10-25T12:01:08.203Z,9.88
2022-10-25T12:03:49.018Z,6.70
2022-10-25T12:06:23.024Z,8.23
2022-10-25T12:09:03.538Z,7.90
2022-10-25T12:11:36.017Z,9.45
2022-10-25T12:14:07.134Z,8.20
2022-10-25T12:16:42.017Z,7.07
2022-10-25T12:19:18.567Z,7.22
2022-10-25T12:21:52.066Z,5.32
2022-10-25T12:24:24.790Z,7.00
2022-10-25T12:26:54.764Z,6.25
2022-10-25T12:29:26.786Z,8.20
2022-10-25T12:32:00.151Z,6.22
2022-10-25T12:34:38.052Z,6.93
2022-10-25T12:37:12.299Z,6.80
2022-10-25T12:39:42.601Z,5.75
2022-10-25T12:42:17.709Z,8.65
2022-10-25T12:45:03.045Z,5.18
2022-10-25T12:47:41.544Z,4.40
2022-10-25T12:50:24.450Z,8.23
2022-10-25T12:53:25.000Z,9.98
2022-10-25T12:56:06.008Z,10.05
2022-10-25T12:58:52.580Z,5.18
2022-10-25T13:01:44.635Z,8.75
2022-10-25T13:04:54.484Z,7.28
2022-10-25T13:07:24.303Z,7.30
2022-10-25T13:09:53.377Z,7.43
2022-10-25T13:12:25.725Z,5.10
2022-10-25T13:17:48.500Z,9.68
2022-10-25T13:23:42.214Z,9.30
2022-10-25T13:26:13.509Z,5.00
2022-10-25T13:28:45.660Z,9.02
2022-10-25T13:31:47.306Z,6.43
2022-10-25T13:34:34.425Z,8.73
2022-10-25T13:37:07.899Z,5.32
2022-10-25T13:39:40.617Z,7.82
2022-10-25T13:42:23.641Z,7.78
2022-10-25T13:44:57.156Z,4.50
2022-10-25T13:47:36.911Z,9.38
2022-10-25T13:50:21.274Z,8.27
2022-10-25T13:53:02.808Z,12.48
2022-10-25T13:55:37.020Z,12.88
2022-10-25T13:58:41.520Z,7.28
2022-10-25T14:02:06.100Z,7.32
2022-10-25T14:04:45.041Z,8.57
2022-10-25T14:07:48.589Z,10.30
2022-10-25T14:10:30.300Z,8.50
2022-10-25T14:13:09.493Z,11.85
2022-10-25T14:15:47.501Z,12.05
2022-10-25T14:18:20.055Z,7.72
2022-10-25T14:20:53.997Z,11.95
2022-10-25T14:23:27.461Z,12.07
2022-10-25T14:28:27.811Z,10.27
2022-10-25T14:30:59.277Z,17.02
2022-10-25T14:33:36.648Z,12.40
2022-10-25T14:36:17.822Z,8.23
2022-10-25T14:38:55.726Z,10.07
2022-10-25T14:41:27.052Z,14.82
2022-10-25T14:44:01.620Z,14.02
2022-10-25T14:46:45.879Z,12.35
2022-10-25T14:49:14.670Z,11.10
2022-10-25T14:51:43.844Z,21.33
2022-10-25T14:54:27.719Z,16.27
2022-10-25T14:56:57.867Z,12.38
2022-10-25T14:59:29.258Z,14.02
2022-10-25T15:02:01.145Z,20.58
2022-10-25T15:04:32.707Z,16.30
2022-10-25T15:07:03.993Z,18.27
2022-10-25T15:09:42.707Z,17.90
2022-10-25T15:12:22.710Z,15.48
2022-10-25T15:14:59.819Z,11.45
2022-10-25T15:17:31.094Z,11.25
2022-10-25T15:20:08.841Z,12.15
2022-10-25T15:22:48.880Z,13.77
2022-10-25T15:25:20.535Z,12.77
2022-10-25T15:27:52.626Z,16.00
2022-10-25T15:33:07.214Z,10.15
2022-10-25T15:35:42.509Z,13.13
2022-10-25T15:38:12.159Z,13.73
2022-10-25T15:40:40.700Z,14.13
2022-10-25T15:43:10.999Z,13.93
2022-10-25T15:45:42.266Z,10.98
2022-10-25T15:48:15.903Z,12.52
2022-10-25T15:50:48.772Z,17.50
2022-10-25T15:53:18.523Z,17.27
2022-10-25T15:55:48.084Z,15.02
2022-10-25T15:58:18.805Z,17.67
2022-10-25T16:00:55.453Z,19.90
2022-10-25T16:03:41.490Z,16.05
2022-10-25T16:06:12.068Z,17.08
2022-10-25T16:08:48.577Z,14.68
2022-10-25T16:11:20.555Z,24.48
2022-10-25T16:13:58.028Z,17.75
2022-10-25T16:16:45.374Z,17.85
2022-10-25T16:19:16.684Z,17.38
2022-10-25T16:21:46.877Z,14.13
2022-10-25T16:24:16.850Z,16.60
2022-10-25T16:26:47.477Z,17.10
2022-10-25T16:29:17.197Z,14.68
2022-10-25T16:31:45.381Z,12.75
2022-10-25T16:34:17.805Z,17.05
2022-10-25T16:39:17.010Z,17.33
2022-10-25T16:41:46.374Z,19.80
2022-10-25T16:44:16.791Z,11.85
2022-10-25T16:46:46.251Z,13.02
2022-10-25T16:49:14.644Z,13.55
2022-10-25T16:51:51.656Z,16.05
2022-10-25T16:54:24.089Z,17.35
2022-10-25T16:56:52.549Z,10.45
2022-10-25T16:59:23.996Z,13.38
2022-10-25T17:01:55.649Z,11.77
2022-10-25T17:04:25.050Z,12.60
2022-10-25T17:06:53.292Z,10.27
2022-10-25T17:09:22.791Z,9.50
2022-10-25T17:11:55.013Z,12.80
2022-10-25T17:14:23.212Z,10.75
2022-10-25T17:16:51.902Z,13.68
2022-10-25T17:19:20.317Z,10.30
2022-10-25T17:21:51.651Z,13.50
2022-10-25T17:26:50.393Z,12.98
2022-10-25T17:29:21.029Z,10.63
2022-10-25T17:31:52.592Z,12.50
2022-10-25T17:34:22.598Z,9.67
2022-10-25T17:39:32.532Z,12.57
2022-10-25T17:42:01.165Z,9.82
2022-10-25T17:44:29.342Z,9.05
2022-10-25T17:46:59.609Z,10.68
2022-10-25T17:49:34.501Z,9.98
2022-10-25T17:52:06.908Z,10.40
2022-10-25T17:59:48.985Z,8.98
2022-10-25T18:02:17.277Z,5.95
2022-10-25T18:05:02.248Z,6.50
2022-10-25T18:07:35.342Z,13.73
2022-10-25T18:10:07.021Z,7.93
2022-10-25T18:12:36.604Z,10.43
2022-10-25T18:15:07.157Z,10.70
2022-10-25T18:17:40.759Z,10.10
2022-10-25T18:20:10.387Z,11.65
2022-10-25T18:22:43.777Z,8.55
2022-10-25T18:25:12.400Z,12.10
2022-10-25T18:27:43.824Z,13.70
2022-10-25T18:30:14.779Z,15.52
2022-10-25T18:32:44.599Z,9.82
2022-10-25T18:35:15.347Z,12.27
2022-10-25T18:37:46.114Z,14.73
2022-10-25T18:40:22.951Z,11.07
2022-10-25T18:42:53.824Z,11.80
2022-10-25T18:45:24.004Z,10.20
2022-10-25T18:47:53.961Z,10.52
2022-10-25T18:50:23.612Z,12.82
2022-10-25T18:52:54.176Z,11.48
2022-10-25T18:55:26.575Z,12.20
2022-10-25T18:57:56.549Z,11.35
2022-10-25T19:00:28.303Z,12.60
2022-10-25T19:02:56.625Z,13.50
2022-10-25T19:05:28.461Z,13.98
2022-10-25T19:07:57.202Z,11.50
2022-10-25T19:10:25.489Z,13.23
2022-10-25T19:12:56.131Z,14.75
2022-10-25T19:15:29.284Z,12.85
2022-10-25T19:18:00.013Z,12.45
2022-10-25T19:20:28.135Z,13.55
2022-10-25T19:22:58.717Z,15.63
2022-10-25T19:25:28.731Z,14.32
2022-10-25T19:27:57.310Z,15.98
2022-10-25T19:30:29.131Z,15.38
2022-10-25T19:32:58.527Z,20.25
2022-10-25T19:35:27.174Z,23.45
2022-10-25T19:37:55.985Z,18.45
2022-10-25T19:40:24.359Z,20.65
2022-10-25T19:42:54.946Z,20.35
2022-10-25T19:45:24.426Z,16.73
2022-10-25T19:48:03.974Z,18.42
2022-10-25T19:50:33.173Z,24.33
2022-10-25T19:53:05.136Z,19.58
2022-10-25T19:55:44.496Z,20.58
2022-10-25T19:58:13.143Z,25.17
2022-10-25T20:00:41.306Z,14.07
2022-10-25T20:03:11.541Z,19.05
2022-10-25T20:05:40.477Z,23.50
2022-10-25T20:08:10.990Z,18.58
2022-10-25T20:10:39.062Z,20.17
2022-10-25T20:13:10.575Z,18.65
2022-10-25T20:15:51.436Z,17.23
2022-10-25T20:18:21.675Z,15.60
2022-10-25T20:20:53.824Z,24.45
2022-10-25T20:23:22.620Z,20.80
2022-10-25T20:25:50.973Z,23.27
2022-10-25T20:28:19.525Z,25.17
2022-10-25T20:30:47.639Z,19.10
2022-10-25T20:33:16.977Z,23.63
2022-10-25T20:35:49.256Z,20.92
2022-10-25T20:38:18.000Z,22.80
2022-10-25T20:40:48.709Z,23.52
2022-10-25T20:43:17.093Z,20.50
2022-10-25T20:45:48.118Z,21.65
2022-10-25T20:48:16.218Z,23.25
2022-10-25T20:50:52.211Z,19.13
2022-10-25T20:53:22.268Z,20.23
2022-10-25T20:55:51.093Z,21.02
2022-10-25T20:58:23.116Z,28.88
2022-10-25T21:00:54.805Z,19.75
2022-10-25T21:03:24.498Z,23.60
2022-10-25T21:05:55.011Z,22.23
2022-10-25T21:08:28.682Z,20.70
2022-10-25T21:11:00.432Z,21.13
2022-10-25T21:13:31.784Z,20.52
2022-10-25T21:18:36.218Z,19.50
2022-10-25T21:21:07.856Z,18.80
2022-10-25T21:23:37.687Z,26.10
2022-10-25T21:26:11.115Z,18.48
2022-10-25T21:28:46.830Z,20.73
2022-10-25T21:31:16.328Z,21.10
2022-10-25T21:33:49.947Z,28.48
2022-10-25T21:36:21.942Z,24.33
2022-10-25T21:38:52.904Z,24.50
2022-10-25T21:41:26.643Z,23.10
2022-10-25T21:43:55.909Z,23.85
2022-10-25T21:46:25.253Z,29.83
2022-10-25T21:48:53.669Z,28.00
2022-10-25T21:51:25.243Z,26.52
2022-10-25T21:53:55.893Z,28.63
2022-10-25T21:56:31.108Z,25.90
2022-10-25T21:59:00.900Z,24.23
2022-10-25T22:01:31.350Z,26.45
2022-10-25T22:04:04.856Z,26.88
2022-10-25T22:06:35.906Z,32.67
2022-10-25T22:09:06.537Z,34.72
2022-10-25T22:11:36.639Z,29.63
2022-10-25T22:14:08.375Z,32.10
2022-10-25T22:16:37.345Z,35.47
2022-10-25T22:19:07.524Z,27.70
2022-10-25T22:21:40.759Z,30.83
2022-10-25T22:24:12.167Z,32.90
2022-10-25T22:26:42.351Z,25.23
2022-10-25T22:29:14.660Z,43.85
2022-10-25T22:34:11.101Z,32.50
2022-10-25T22:36:42.469Z,34.22
2022-10-25T22:39:10.699Z,29.27
2022-10-25T22:41:40.395Z,30.85
2022-10-25T22:44:09.009Z,35.92
2022-10-25T22:46:37.551Z,29.27
2022-10-25T22:49:09.786Z,31.75
2022-10-25T22:51:40.108Z,23.75
2022-10-25T22:54:08.689Z,33.53
2022-10-25T22:56:37.218Z,35.80
2022-10-25T22:59:08.448Z,32.00
2022-10-25T23:01:38.483Z,30.30
2022-10-25T23:04:15.368Z,43.00
2022-10-25T23:06:45.085Z,33.83
2022-10-25T23:09:15.619Z,34.22
2022-10-25T23:11:44.184Z,24.95
2022-10-25T23:14:17.367Z,33.55
2022-10-25T23:16:46.085Z,21.15
2022-10-25T23:19:19.659Z,25.90
2022-10-25T23:21:50.670Z,32.28
2022-10-25T23:24:19.141Z,31.25
2022-10-25T23:26:47.345Z,31.38
2022-10-25T23:29:15.670Z,28.25
2022-10-25T23:31:45.752Z,26.42
2022-10-25T23:34:14.191Z,34.78
2022-10-25T23:36:42.955Z,33.55
2022-10-25T23:39:13.740Z,27.20
2022-10-25T23:41:43.576Z,28.95
2022-10-25T23:44:11.599Z,23.65
2022-10-25T23:46:39.755Z,24.42
2022-10-25T23:49:07.971Z,27.48
2022-10-25T23:51:36.652Z,26.92
2022-10-25T23:54:05.165Z,24.48
2022-10-25T23:56:34.841Z,22.23
2022-10-25T23:59:05.492Z,22.10
